Time;durP1;ratioP1;P1;durP2;ratioP2;P2;SDS_P1;SDS_P2;PMS_P1;PMS_P2;Temp;Humidity;BMP_temperature;BMP_pressure;BME280_temperature;BME280_humidity;BME280_pressure;Samples;Min_cycle;Max_cycle;Signal;HPM_P1;HPM_P2
2022/03/17 00:01:43;;;;;;;17.50;13.18;;;;;;;3.56;100.00;91361.22;5054986;28;20376;-63
2022/03/17 00:04:08;;;;;;;17.80;13.40;;;;;;;3.51;100.00;91354.09;5054542;28;20025;-64
2022/03/17 00:06:34;;;;;;;17.25;12.38;;;;;;;3.49;100.00;91344.88;5054489;28;20102;-64
2022/03/17 00:09:00;;;;;;;21.17;13.65;;;;;;;3.54;100.00;91356.22;5054383;28;20029;-64
2022/03/17 00:11:26;;;;;;;20.17;12.63;;;;;;;3.52;100.00;91360.13;5054480;28;20056;-64
2022/03/17 00:13:52;;;;;;;23.55;14.30;;;;;;;3.54;100.00;91360.69;5054287;28;20547;-64
2022/03/17 00:16:17;;;;;;;18.48;13.23;;;;;;;3.56;100.00;91363.84;5054322;28;20037;-63
2022/03/17 00:18:43;;;;;;;21.83;13.88;;;;;;;3.53;100.00;91359.09;5054133;28;20548;-63
2022/03/17 00:21:08;;;;;;;30.83;18.35;;;;;;;3.60;100.00;91367.53;5052844;28;20033;-64
2022/03/17 00:23:34;;;;;;;20.35;14.35;;;;;;;3.73;100.00;91367.09;5054116;28;20029;-64
2022/03/17 00:25:59;;;;;;;18.42;13.63;;;;;;;3.65;100.00;91353.63;5054114;28;20525;-64
2022/03/17 00:28:25;;;;;;;23.92;15.40;;;;;;;3.68;100.00;91358.38;5054077;28;20491;-64
2022/03/17 00:30:50;;;;;;;24.55;16.27;;;;;;;3.61;100.00;91359.38;5054137;28;20032;-64
2022/03/17 00:33:15;;;;;;;20.20;14.25;;;;;;;3.41;100.00;91359.28;5053935;28;20025;-63
2022/03/17 00:35:44;;;;;;;21.15;14.57;;;;;;;3.28;100.00;91355.25;5053806;28;20534;-64
2022/03/17 00:38:17;;;;;;;19.50;14.27;;;;;;;3.32;100.00;91367.91;5053793;28;20036;-63
2022/03/17 00:40:45;;;;;;;21.80;15.15;;;;;;;3.34;100.00;91360.56;5053701;28;20025;-64
2022/03/17 00:43:12;;;;;;;22.10;13.15;;;;;;;3.44;100.00;91363.25;5040986;28;20119;-64
2022/03/17 00:45:43;;;;;;;22.73;14.30;;;;;;;3.32;100.00;91339.00;5033784;28;20495;-64
2022/03/17 00:48:10;;;;;;;21.30;13.18;;;;;;;3.48;100.00;91356.44;5033807;28;20452;-64
2022/03/17 00:50:36;;;;;;;17.70;12.63;;;;;;;3.51;100.00;91363.81;5033723;28;20060;-64
2022/03/17 00:53:03;;;;;;;17.73;13.10;;;;;;;3.46;100.00;91350.63;5033838;28;20036;-66
2022/03/17 00:55:28;;;;;;;21.27;14.70;;;;;;;3.47;100.00;91349.56;5033639;28;20033;-64
2022/03/17 00:57:54;;;;;;;27.55;17.88;;;;;;;3.57;100.00;91352.28;5033565;28;20487;-63
2022/03/17 01:00:21;;;;;;;22.48;16.75;;;;;;;3.58;100.00;91348.59;5033500;28;20033;-64
2022/03/17 01:02:49;;;;;;;22.45;15.85;;;;;;;3.54;100.00;91342.25;5032935;28;20037;-64
2022/03/17 01:05:15;;;;;;;23.73;15.65;;;;;;;3.53;100.00;91346.72;5033467;28;20021;-64
2022/03/17 01:07:40;;;;;;;26.67;16.63;;;;;;;3.51;100.00;91348.84;5033399;28;20477;-64
2022/03/17 01:10:08;;;;;;;24.20;16.55;;;;;;;3.49;100.00;91350.13;5033517;28;20029;-64
2022/03/17 01:12:33;;;;;;;28.33;18.05;;;;;;;3.49;100.00;91352.78;5033221;28;20053;-64
2022/03/17 01:15:00;;;;;;;32.00;19.67;;;;;;;3.40;100.00;91349.81;5033161;28;20060;-64
2022/03/17 01:17:26;;;;;;;33.75;20.75;;;;;;;3.38;100.00;91359.81;5033324;28;20029;-64
2022/03/17 01:19:51;;;;;;;30.85;18.67;;;;;;;3.33;100.00;91361.63;5031863;28;20537;-64
2022/03/17 01:22:17;;;;;;;25.27;18.77;;;;;;;3.28;100.00;91346.56;5033178;28;20053;-63
2022/03/17 01:24:45;;;;;;;26.25;18.85;;;;;;;3.26;100.00;91357.34;5033031;28;20132;-64
2022/03/17 01:27:11;;;;;;;29.02;19.25;;;;;;;3.07;100.00;91337.78;5033040;28;20486;-63
2022/03/17 01:29:38;;;;;;;30.05;20.75;;;;;;;3.25;100.00;91350.50;5032849;28;20027;-64
2022/03/17 01:32:04;;;;;;;27.77;19.40;;;;;;;3.26;100.00;91353.94;5033023;28;20025;-64
2022/03/17 01:34:29;;;;;;;26.23;18.83;;;;;;;3.25;100.00;91360.25;5032933;28;20124;-64
2022/03/17 01:36:55;;;;;;;30.05;20.77;;;;;;;3.15;100.00;91360.16;5032797;28;20090;-63
2022/03/17 01:39:20;;;;;;;34.25;22.42;;;;;;;3.18;100.00;91354.41;5032666;28;20435;-64
2022/03/17 01:41:46;;;;;;;34.67;23.35;;;;;;;3.07;100.00;91353.56;5032581;28;20032;-65
2022/03/17 01:44:11;;;;;;;38.65;25.15;;;;;;;3.10;100.00;91357.50;5032662;28;20108;-64
2022/03/17 01:49:21;;;;;;;39.90;25.90;;;;;;;3.16;100.00;91359.94;5032388;28;20117;-64
2022/03/17 01:51:47;;;;;;;43.58;28.27;;;;;;;3.14;100.00;91356.75;5032402;28;20116;-64
2022/03/17 01:54:14;;;;;;;50.92;31.15;;;;;;;3.22;100.00;91360.75;5032480;28;20017;-64
2022/03/17 01:56:39;;;;;;;53.70;31.25;;;;;;;3.17;100.00;91353.63;5032453;28;20057;-64
2022/03/17 01:59:05;;;;;;;53.58;32.55;;;;;;;3.08;100.00;91360.38;5032474;28;20071;-64
2022/03/17 02:01:30;;;;;;;51.70;32.22;;;;;;;3.04;100.00;91361.16;5032174;28;20479;-64
2022/03/17 02:03:56;;;;;;;63.30;34.90;;;;;;;3.05;100.00;91371.41;5032300;28;20026;-64
2022/03/17 02:06:23;;;;;;;57.45;34.92;;;;;;;3.08;100.00;91373.53;5030025;28;20026;-59
2022/03/17 02:08:49;;;;;;;54.78;32.38;;;;;;;3.00;100.00;91377.44;5032613;28;20030;-64
2022/03/17 02:13:58;;;;;;;32.50;21.40;;;;;;;2.80;100.00;91398.28;5032351;28;20036;-63
2022/03/17 02:16:26;;;;;;;40.58;24.13;;;;;;;2.65;100.00;91398.94;5032271;28;20033;-63
2022/03/17 02:18:52;;;;;;;35.08;21.83;;;;;;;2.68;100.00;91393.19;5032070;28;20032;-63
2022/03/17 02:21:17;;;;;;;34.83;22.33;;;;;;;2.60;100.00;91396.25;5032052;28;20026;-63
2022/03/17 02:26:30;;;;;;;37.50;23.15;;;;;;;2.54;100.00;91407.78;5032095;28;20087;-64
2022/03/17 02:28:55;;;;;;;37.38;22.70;;;;;;;2.55;100.00;91409.34;5032094;28;20421;-64
2022/03/17 02:31:21;;;;;;;43.92;25.48;;;;;;;2.38;100.00;91398.16;5032101;28;20034;-64
2022/03/17 02:33:47;;;;;;;48.13;27.95;;;;;;;2.49;100.00;91417.41;5030667;28;20091;-64
2022/03/17 02:36:12;;;;;;;54.17;30.77;;;;;;;2.48;100.00;91419.25;5031762;28;20033;-63
2022/03/17 02:38:38;;;;;;;43.30;26.45;;;;;;;2.55;100.00;91417.22;5031687;28;20025;-63
2022/03/17 02:41:03;;;;;;;48.85;29.40;;;;;;;2.51;100.00;91418.75;5031877;28;20469;-64
2022/03/17 02:43:28;;;;;;;41.22;26.25;;;;;;;2.40;100.00;91420.50;5031448;28;20129;-64
2022/03/17 02:45:54;;;;;;;37.63;23.05;;;;;;;2.32;100.00;91410.41;5031682;28;20021;-64
2022/03/17 02:48:19;;;;;;;30.50;20.83;;;;;;;2.30;100.00;91414.34;5031590;28;20052;-64
2022/03/17 02:50:45;;;;;;;29.90;18.92;;;;;;;2.27;100.00;91412.22;5031537;28;20033;-63
2022/03/17 02:53:11;;;;;;;27.27;17.85;;;;;;;2.15;100.00;91414.16;5031833;28;20410;-63
2022/03/17 02:55:40;;;;;;;25.17;16.55;;;;;;;2.18;100.00;91414.47;5031489;28;20057;-63
2022/03/17 02:58:07;;;;;;;21.83;15.73;;;;;;;2.28;100.00;91416.41;5031439;28;20037;-63
2022/03/17 03:00:34;;;;;;;26.15;17.67;;;;;;;2.35;100.00;91417.00;5031347;28;20602;-64
2022/03/17 03:03:00;;;;;;;26.23;16.60;;;;;;;2.24;100.00;91408.25;5031418;28;20033;-64
2022/03/17 03:05:26;;;;;;;25.35;16.95;;;;;;;2.01;100.00;91400.63;5183599;23;20049;-69
2022/03/17 03:07:52;;;;;;;27.27;18.30;;;;;;;2.05;100.00;91410.41;5051337;28;20082;-69
2022/03/17 03:10:17;;;;;;;30.00;18.73;;;;;;;2.01;100.00;91411.13;5051163;28;20489;-70
2022/03/17 03:12:43;;;;;;;32.20;19.73;;;;;;;2.13;100.00;91400.50;5051292;28;20100;-70
2022/03/17 03:15:09;;;;;;;31.75;18.08;;;;;;;2.19;100.00;91391.63;5051229;28;20033;-70
2022/03/17 03:17:35;;;;;;;31.38;18.83;;;;;;;2.35;100.00;91411.75;5050999;28;20501;-70
2022/03/17 03:20:00;;;;;;;29.17;19.83;;;;;;;2.19;100.00;91410.81;5051095;28;20033;-70
2022/03/17 03:22:29;;;;;;;32.38;20.17;;;;;;;2.27;100.00;91412.22;5050993;28;20028;-70
2022/03/17 03:24:57;;;;;;;34.42;21.50;;;;;;;2.17;100.00;91405.00;5050461;28;20029;-70
2022/03/17 03:27:27;;;;;;;31.63;20.55;;;;;;;2.20;100.00;91424.72;5050970;28;20446;-70
2022/03/17 03:29:56;;;;;;;35.92;22.85;;;;;;;2.02;100.00;91431.88;5051262;28;20024;-70
2022/03/17 03:32:22;;;;;;;40.28;24.75;;;;;;;1.91;100.00;91435.44;5050942;28;20044;-71
2022/03/17 03:34:48;;;;;;;40.55;24.52;;;;;;;2.02;100.00;91429.25;5049716;28;20044;-71
2022/03/17 03:37:25;;;;;;;39.22;24.10;;;;;;;1.98;100.00;91435.22;5050950;28;20410;-71
2022/03/17 03:39:56;;;;;;;37.63;23.02;;;;;;;1.84;100.00;91424.31;5050874;28;20048;-71
2022/03/17 03:42:23;;;;;;;36.22;22.02;;;;;;;1.92;100.00;91437.00;5050786;28;20072;-71
2022/03/17 03:44:49;;;;;;;37.83;21.95;;;;;;;1.95;100.00;91443.59;5050712;28;20041;-71
2022/03/17 03:47:15;;;;;;;33.65;21.00;;;;;;;1.87;100.00;91444.00;5050735;28;20045;-71
2022/03/17 03:49:42;;;;;;;34.65;20.98;;;;;;;1.90;100.00;91440.91;5050803;28;20033;-71
2022/03/17 03:52:09;;;;;;;33.30;20.17;;;;;;;1.96;100.00;91447.81;5050962;28;20037;-71
2022/03/17 03:54:35;;;;;;;34.78;20.27;;;;;;;1.99;100.00;91448.09;5050618;28;20035;-71
2022/03/17 03:57:02;;;;;;;33.65;21.60;;;;;;;2.04;100.00;91455.22;5050801;28;20111;-71
2022/03/17 03:59:29;;;;;;;36.08;22.40;;;;;;;2.00;100.00;91456.75;5050938;28;20120;-71
2022/03/17 04:01:57;;;;;;;42.65;24.88;;;;;;;2.05;100.00;91456.81;5050633;28;20025;-70
2022/03/17 04:04:24;;;;;;;51.50;31.98;;;;;;;2.03;100.00;91454.44;5050296;28;20406;-70
2022/03/17 04:06:54;;;;;;;50.47;29.98;;;;;;;2.01;100.00;91451.28;5050572;28;20486;-70
2022/03/17 04:09:23;;;;;;;52.13;30.95;;;;;;;2.12;100.00;91467.16;5050842;28;20401;-70
2022/03/17 04:11:49;;;;;;;64.57;37.20;;;;;;;2.02;100.00;91452.84;5050551;28;20086;-70
2022/03/17 04:14:15;;;;;;;65.18;38.55;;;;;;;2.04;100.00;91458.66;5050361;28;20475;-71
2022/03/17 04:16:40;;;;;;;73.00;41.67;;;;;;;2.02;100.00;91457.31;5050540;28;20060;-70
2022/03/17 04:19:06;;;;;;;75.88;42.35;;;;;;;1.99;100.00;91469.09;5050530;28;20462;-69
2022/03/17 04:21:33;;;;;;;76.70;42.13;;;;;;;2.01;100.00;91474.88;5047684;28;20063;-69
2022/03/17 04:24:00;;;;;;;72.70;42.38;;;;;;;2.03;100.00;91478.06;5050182;28;20033;-69
2022/03/17 04:26:26;;;;;;;63.75;38.15;;;;;;;2.08;100.00;91479.97;5048811;28;20114;-70
2022/03/17 04:28:52;;;;;;;56.90;35.20;;;;;;;2.05;100.00;91489.13;5048301;28;20044;-70
2022/03/17 04:31:20;;;;;;;58.88;34.28;;;;;;;2.09;100.00;91490.22;5045743;28;20131;-70
2022/03/17 04:33:47;;;;;;;66.22;38.95;;;;;;;2.06;100.00;91489.94;5045850;28;20040;-69
2022/03/17 04:36:12;;;;;;;61.30;35.03;;;;;;;2.08;100.00;91493.88;5050116;28;20021;-68
2022/03/17 04:38:38;;;;;;;63.65;37.92;;;;;;;2.03;100.00;91485.94;5053954;28;20079;-69
2022/03/17 04:41:04;;;;;;;39.08;23.85;;;;;;;2.09;100.00;91489.44;5053724;28;20021;-68
2022/03/17 04:43:30;;;;;;;38.92;22.92;;;;;;;2.07;100.00;91500.19;5053765;28;20114;-69
2022/03/17 04:45:55;;;;;;;41.08;25.13;;;;;;;2.04;100.00;91498.00;5052419;28;20064;-69
2022/03/17 04:48:20;;;;;;;36.70;22.88;;;;;;;2.06;100.00;91503.03;5053706;28;20040;-69
2022/03/17 04:50:46;;;;;;;29.15;18.58;;;;;;;2.15;100.00;91501.56;5053717;28;20029;-68
2022/03/17 04:53:27;;;;;;;26.05;17.15;;;;;;;2.07;100.00;91500.19;5049756;28;20028;-68
2022/03/17 04:56:14;;;;;;;25.02;16.45;;;;;;;1.99;100.00;91505.81;5053074;28;20435;-70
2022/03/17 04:58:41;;;;;;;25.08;16.75;;;;;;;2.04;100.00;91497.22;5052005;28;20418;-69
2022/03/17 05:01:08;;;;;;;22.17;15.32;;;;;;;2.09;100.00;91513.84;5053243;28;20036;-70
2022/03/17 05:03:34;;;;;;;22.70;14.77;;;;;;;2.10;100.00;91520.69;5052939;28;20025;-70
2022/03/17 05:06:02;;;;;;;20.35;14.13;;;;;;;2.13;100.00;91515.97;5052361;28;20510;-70
2022/03/17 05:08:27;;;;;;;20.95;14.25;;;;;;;2.15;100.00;91521.78;5051630;28;20032;-70
2022/03/17 05:10:53;;;;;;;21.73;14.57;;;;;;;2.17;100.00;91517.88;5053229;28;20029;-70
2022/03/17 05:13:20;;;;;;;23.38;14.88;;;;;;;2.20;100.00;91524.47;5052961;28;20021;-70
2022/03/17 05:15:46;;;;;;;26.90;17.50;;;;;;;2.21;100.00;91521.63;5052879;28;20115;-70
2022/03/17 05:18:12;;;;;;;25.77;16.73;;;;;;;2.25;100.00;91516.66;5052971;28;20092;-70
2022/03/17 05:20:40;;;;;;;33.55;20.80;;;;;;;2.26;100.00;91513.00;5052579;28;20486;-67
2022/03/17 05:23:12;;;;;;;40.45;23.48;;;;;;;2.16;100.00;91521.53;5052928;28;20025;-67
2022/03/17 05:25:39;;;;;;;40.22;24.92;;;;;;;2.09;100.00;91521.72;5052837;28;20035;-68
2022/03/17 05:28:08;;;;;;;39.80;24.05;;;;;;;2.00;100.00;91530.25;5052873;28;20483;-66
2022/03/17 05:30:34;;;;;;;41.58;26.25;;;;;;;1.89;100.00;91524.03;5053040;28;20055;-66
2022/03/17 05:33:00;;;;;;;40.50;23.50;;;;;;;1.82;100.00;91510.31;5052685;28;20536;-67
2022/03/17 05:35:26;;;;;;;39.45;22.85;;;;;;;1.88;100.00;91519.84;5052183;28;20533;-66
2022/03/17 05:37:53;;;;;;;41.15;24.75;;;;;;;1.89;100.00;91534.53;5052819;28;20029;-67
2022/03/17 05:40:19;;;;;;;38.60;23.80;;;;;;;2.05;100.00;91530.28;5052281;28;20102;-67
2022/03/17 05:42:49;;;;;;;43.92;24.90;;;;;;;2.17;100.00;91519.69;5048725;28;20477;-68
2022/03/17 05:45:16;;;;;;;40.42;23.95;;;;;;;2.18;100.00;91529.16;5052681;28;20102;-68
2022/03/17 05:47:44;;;;;;;69.07;30.73;;;;;;;2.29;100.00;91541.38;5051784;28;20053;-67
2022/03/17 05:50:14;;;;;;;35.10;22.65;;;;;;;2.10;100.00;91539.06;5048965;28;20082;-67
2022/03/17 05:52:42;;;;;;;26.90;18.15;;;;;;;1.98;100.00;91551.47;5043892;28;20021;-67
2022/03/17 05:55:09;;;;;;;56.10;28.52;;;;;;;2.00;100.00;91554.66;5039488;28;20033;-67
2022/03/17 05:57:35;;;;;;;58.35;31.42;;;;;;;2.07;100.00;91557.13;5039945;28;20422;-67
2022/03/17 06:00:01;;;;;;;64.70;34.55;;;;;;;2.13;100.00;91557.97;5040600;28;20119;-66
2022/03/17 06:02:26;;;;;;;119.53;62.17;;;;;;;2.18;100.00;91555.41;5034507;28;20567;-66
2022/03/17 06:04:52;;;;;;;61.65;32.15;;;;;;;2.14;100.00;91549.06;5035010;28;20037;-67
2022/03/17 06:07:18;;;;;;;68.75;45.13;;;;;;;2.23;100.00;91558.13;5046914;28;20063;-66
2022/03/17 06:09:43;;;;;;;58.83;35.08;;;;;;;2.13;100.00;91553.50;5051757;28;20107;-66
2022/03/17 06:12:09;;;;;;;38.45;27.40;;;;;;;2.25;100.00;91553.41;5051884;28;20021;-66
2022/03/17 06:14:35;;;;;;;52.63;37.38;;;;;;;2.17;100.00;91561.69;5051600;28;20036;-65
2022/03/17 06:17:00;;;;;;;60.20;37.42;;;;;;;2.25;100.00;91561.28;5051598;28;20032;-65
2022/03/17 06:19:26;;;;;;;55.60;34.97;;;;;;;2.16;100.00;91570.59;5051646;28;20036;-65
2022/03/17 06:21:52;;;;;;;93.25;56.17;;;;;;;2.26;100.00;91573.38;5051187;28;20028;-66
2022/03/17 06:24:17;;;;;;;149.93;83.47;;;;;;;2.14;100.00;91567.44;5051427;28;20033;-65
2022/03/17 06:26:43;;;;;;;151.05;89.05;;;;;;;2.09;100.00;91579.44;5051503;28;20021;-65
2022/03/17 06:29:08;;;;;;;115.25;72.95;;;;;;;2.16;100.00;91583.72;5051145;28;20116;-66
2022/03/17 06:31:36;;;;;;;92.55;61.20;;;;;;;2.05;100.00;91580.97;5051415;28;20112;-65
2022/03/17 06:34:02;;;;;;;68.75;45.42;;;;;;;2.03;100.00;91590.09;5051432;28;20448;-65
2022/03/17 06:36:27;;;;;;;50.70;33.72;;;;;;;2.02;100.00;91601.63;5050941;28;20082;-65
2022/03/17 06:38:53;;;;;;;79.68;45.00;;;;;;;2.03;100.00;91596.16;5051266;28;20047;-65
2022/03/17 06:41:18;;;;;;;69.93;41.35;;;;;;;2.03;100.00;91595.34;5051212;28;20410;-66
2022/03/17 06:43:43;;;;;;;77.00;49.50;;;;;;;2.17;100.00;91590.56;5051247;28;20113;-67
2022/03/17 06:46:10;;;;;;;79.65;56.08;;;;;;;2.32;100.00;91598.66;5050628;28;20032;-67
2022/03/17 06:48:35;;;;;;;87.05;57.72;;;;;;;2.14;100.00;91612.84;5049599;28;20040;-67
2022/03/17 06:51:01;;;;;;;65.80;44.63;;;;;;;2.00;100.00;91612.38;5050386;28;20055;-67
2022/03/17 06:53:27;;;;;;;58.22;36.38;;;;;;;1.91;100.00;91611.19;5050871;28;20020;-66
2022/03/17 06:55:52;;;;;;;39.45;25.08;;;;;;;1.80;100.00;91625.19;5050818;28;20095;-67
2022/03/17 06:58:18;;;;;;;31.85;19.67;;;;;;;1.67;100.00;91628.13;5050627;28;20059;-67
2022/03/17 07:00:43;;;;;;;39.85;23.48;;;;;;;1.62;100.00;91620.19;5050426;28;20021;-66
2022/03/17 07:03:09;;;;;;;58.75;30.15;;;;;;;1.62;100.00;91631.47;5050603;28;20032;-67
2022/03/17 07:05:34;;;;;;;36.47;23.13;;;;;;;1.64;100.00;91632.00;5049896;28;20059;-67
2022/03/17 07:07:59;;;;;;;42.88;28.50;;;;;;;1.63;100.00;91621.75;5050645;28;20020;-68
2022/03/17 07:10:27;;;;;;;42.88;27.95;;;;;;;1.47;100.00;91632.00;5050723;28;20091;-66
2022/03/17 07:12:53;;;;;;;55.95;31.80;;;;;;;1.62;100.00;91643.78;5050217;28;20035;-67
2022/03/17 07:15:19;;;;;;;43.38;28.55;;;;;;;1.51;100.00;91640.19;5050468;28;20108;-62
2022/03/17 07:17:45;;;;;;;56.67;33.78;;;;;;;1.55;100.00;91641.28;5049881;28;20035;-62
2022/03/17 07:20:16;;;;;;;34.80;23.83;;;;;;;1.70;100.00;91635.50;5049873;28;20118;-61
2022/03/17 07:22:43;;;;;;;40.42;27.85;;;;;;;1.71;100.00;91647.59;5050840;28;20057;-61
2022/03/17 07:25:11;;;;;;;37.67;23.85;;;;;;;1.60;100.00;91651.88;5050469;28;20108;-61
2022/03/17 07:27:43;;;;;;;53.78;33.33;;;;;;;1.62;100.00;91651.66;5050456;28;20498;-61
2022/03/17 07:30:15;;;;;;;48.55;29.77;;;;;;;1.70;100.00;91648.63;5050487;28;20039;-64
2022/03/17 07:32:40;;;;;;;55.90;32.80;;;;;;;1.88;100.00;91640.50;5050333;28;20029;-64
2022/03/17 07:35:07;;;;;;;56.75;34.58;;;;;;;1.97;100.00;91644.34;5049610;28;20033;-66
2022/03/17 07:37:32;;;;;;;62.60;36.33;;;;;;;2.24;100.00;91649.75;5050252;28;20561;-65
2022/03/17 07:39:57;;;;;;;56.95;32.45;;;;;;;2.34;100.00;91654.34;5050458;28;20100;-66
2022/03/17 07:42:23;;;;;;;35.03;22.52;;;;;;;2.18;100.00;91663.03;5050530;28;20478;-65
2022/03/17 07:44:48;;;;;;;32.13;20.73;;;;;;;2.18;100.00;91666.44;5050370;28;20033;-65
2022/03/17 07:47:14;;;;;;;31.15;20.95;;;;;;;2.29;100.00;91662.94;5050226;28;20028;-65
2022/03/17 07:49:40;;;;;;;37.45;24.27;;;;;;;2.17;100.00;91674.56;5050241;28;20410;-66
2022/03/17 07:52:06;;;;;;;52.28;34.25;;;;;;;2.13;100.00;91676.88;5050595;28;20507;-65
2022/03/17 07:54:33;;;;;;;40.42;27.83;;;;;;;1.83;100.00;91663.25;5050347;28;20446;-65
2022/03/17 07:56:59;;;;;;;46.50;30.05;;;;;;;1.79;100.00;91676.06;5050542;28;20036;-65
2022/03/17 07:59:25;;;;;;;76.05;41.25;;;;;;;1.61;100.00;91681.53;5050455;28;20033;-65
2022/03/17 08:01:51;;;;;;;72.57;39.50;;;;;;;1.83;100.00;91681.63;5050314;28;20478;-65
2022/03/17 08:04:16;;;;;;;46.55;29.38;;;;;;;1.64;100.00;91689.72;5049870;28;20041;-65
2022/03/17 08:06:42;;;;;;;51.17;30.40;;;;;;;1.71;100.00;91681.69;5050432;28;20467;-65
2022/03/17 08:09:08;;;;;;;49.75;31.70;;;;;;;1.74;100.00;91682.03;5050281;28;20130;-65
2022/03/17 08:11:33;;;;;;;54.88;34.67;;;;;;;1.60;100.00;91670.25;5052618;28;20029;-65
2022/03/17 08:13:59;;;;;;;41.50;26.13;;;;;;;1.80;100.00;91690.75;5054070;28;20037;-65
2022/03/17 08:16:24;;;;;;;37.95;20.15;;;;;;;1.76;100.00;91681.78;5054111;28;20029;-65
2022/03/17 08:18:50;;;;;;;22.20;15.35;;;;;;;1.72;100.00;91685.88;5053871;28;20037;-65
2022/03/17 08:21:16;;;;;;;29.42;18.70;;;;;;;1.87;100.00;91690.59;5054082;28;20041;-65
2022/03/17 08:23:42;;;;;;;51.83;21.40;;;;;;;1.89;100.00;91688.53;5053987;28;20509;-65
2022/03/17 08:26:07;;;;;;;53.10;22.95;;;;;;;1.78;100.00;91679.72;5054031;28;20017;-65
2022/03/17 08:28:33;;;;;;;26.73;15.27;;;;;;;1.88;100.00;91693.00;5053912;28;20510;-65
2022/03/17 08:30:59;;;;;;;20.80;14.10;;;;;;;1.76;100.00;91690.44;5053932;28;20054;-65
2022/03/17 08:33:25;;;;;;;29.95;18.38;;;;;;;2.07;100.00;91686.50;5053416;28;20033;-64
2022/03/17 08:35:50;;;;;;;29.50;19.90;;;;;;;2.46;100.00;91696.25;5053998;28;20135;-65
2022/03/17 08:38:16;;;;;;;22.63;14.90;;;;;;;2.85;100.00;91682.13;5052427;28;20032;-66
2022/03/17 08:40:41;;;;;;;20.55;12.93;;;;;;;2.59;100.00;91694.09;5053827;28;20490;-64
2022/03/17 08:43:08;;;;;;;13.70;10.07;;;;;;;2.81;100.00;91695.97;5053630;28;20430;-65
2022/03/17 08:51:03;;;;;;;12.80;8.73;;;;;;;3.05;100.00;91694.72;5052180;28;20032;-65
2022/03/17 08:53:29;;;;;;;15.90;11.10;;;;;;;2.62;100.00;91692.81;5052822;28;20210;-65
2022/03/17 08:55:54;;;;;;;11.18;8.85;;;;;;;2.30;100.00;91690.78;5053265;28;20059;-65
2022/03/17 08:58:23;;;;;;;18.30;10.73;;;;;;;2.21;100.00;91696.66;5053326;28;20162;-64
2022/03/17 09:00:49;;;;;;;23.33;16.33;;;;;;;2.39;100.00;91709.56;5053395;28;20045;-65
2022/03/17 09:03:14;;;;;;;28.30;16.58;;;;;;;2.58;100.00;91704.84;5052882;28;20123;-65
2022/03/17 09:05:41;;;;;;;32.70;23.40;;;;;;;2.61;100.00;91697.28;5052693;28;20128;-64
2022/03/17 09:08:08;;;;;;;18.67;14.02;;;;;;;2.70;100.00;91695.84;5053078;28;20021;-64
2022/03/17 09:10:35;;;;;;;21.30;15.30;;;;;;;2.89;100.00;91695.56;5053072;28;20115;-65
2022/03/17 09:13:07;;;;;;;29.15;19.02;;;;;;;3.05;100.00;91697.34;5053094;28;20033;-65
2022/03/17 09:15:38;;;;;;;28.20;17.65;;;;;;;3.15;100.00;91699.28;5052985;28;20395;-65
2022/03/17 09:18:06;;;;;;;26.30;18.70;;;;;;;3.10;100.00;91697.38;5052650;28;20107;-65
2022/03/17 09:20:31;;;;;;;16.63;12.52;;;;;;;3.05;100.00;91692.09;5053095;28;20098;-65
2022/03/17 09:22:57;;;;;;;22.88;14.75;;;;;;;3.08;100.00;91704.72;5052176;28;20104;-65
2022/03/17 09:25:24;;;;;;;17.55;12.10;;;;;;;3.11;100.00;91701.59;5052817;28;20044;-65
2022/03/17 09:27:50;;;;;;;27.40;18.65;;;;;;;3.20;100.00;91699.38;5052661;28;20082;-65
2022/03/17 09:30:16;;;;;;;29.77;19.90;;;;;;;3.06;100.00;91708.66;5052296;28;20116;-65
2022/03/17 09:32:42;;;;;;;38.92;22.50;;;;;;;3.07;100.00;91710.22;5052390;28;20150;-65
2022/03/17 09:35:08;;;;;;;28.00;17.85;;;;;;;2.82;100.00;91705.44;5052106;28;20527;-65
2022/03/17 09:37:33;;;;;;;35.15;21.90;;;;;;;2.80;100.00;91713.56;5052628;28;20025;-64
2022/03/17 09:39:59;;;;;;;26.17;17.00;;;;;;;2.79;100.00;91704.09;5052476;28;20024;-64
2022/03/17 09:42:25;;;;;;;30.77;19.92;;;;;;;2.69;100.00;91720.53;5052483;28;20517;-64
2022/03/17 09:44:52;;;;;;;26.38;18.38;;;;;;;3.01;100.00;91717.28;5052499;28;20033;-64
2022/03/17 09:47:20;;;;;;;27.33;19.38;;;;;;;3.17;100.00;91719.06;5052478;28;20032;-64
2022/03/17 09:49:53;;;;;;;13.95;9.70;;;;;;;3.13;100.00;91719.75;5052035;28;20036;-64
2022/03/17 09:52:20;;;;;;;14.05;10.48;;;;;;;3.28;100.00;91723.38;5052331;28;20025;-65
2022/03/17 09:54:49;;;;;;;13.38;9.50;;;;;;;2.81;100.00;91730.91;5052594;28;20037;-64
2022/03/17 09:57:17;;;;;;;16.77;11.55;;;;;;;2.86;100.00;91725.75;5052279;28;20146;-64
2022/03/17 09:59:48;;;;;;;25.05;16.45;;;;;;;2.92;100.00;91730.03;5052271;28;20025;-64
2022/03/17 10:02:16;;;;;;;21.85;15.57;;;;;;;2.94;100.00;91735.03;5052149;28;20025;-64
2022/03/17 10:04:44;;;;;;;30.45;20.45;;;;;;;3.52;100.00;91733.66;5051470;28;20060;-64
2022/03/17 10:07:14;;;;;;;25.08;17.23;;;;;;;3.75;100.00;91728.13;5052106;28;20086;-64
2022/03/17 10:09:39;;;;;;;27.35;19.27;;;;;;;3.83;100.00;91725.06;5052011;28;20067;-64
2022/03/17 10:12:09;;;;;;;27.75;18.48;;;;;;;3.69;100.00;91736.22;5052075;28;20029;-65
2022/03/17 10:14:46;;;;;;;23.77;15.38;;;;;;;3.61;100.00;91729.53;5051751;28;20035;-64
2022/03/17 10:17:28;;;;;;;28.15;18.27;;;;;;;3.40;100.00;91743.50;5051905;28;20424;-64
2022/03/17 10:20:13;;;;;;;29.10;19.10;;;;;;;3.43;100.00;91741.19;5051778;28;20469;-64
2022/03/17 10:22:48;;;;;;;28.90;19.63;;;;;;;3.58;100.00;91745.81;5052012;28;20021;-64
2022/03/17 10:25:22;;;;;;;30.15;20.17;;;;;;;3.53;100.00;91741.31;5051554;28;20410;-64
2022/03/17 10:27:55;;;;;;;32.90;21.30;;;;;;;3.28;100.00;91743.63;5051438;28;20060;-64
2022/03/17 10:30:33;;;;;;;35.28;22.27;;;;;;;3.13;100.00;91760.00;5042458;28;20033;-64
2022/03/17 10:33:14;;;;;;;40.92;23.95;;;;;;;3.25;100.00;91750.16;5031214;28;20079;-64
2022/03/17 10:35:45;;;;;;;36.75;22.90;;;;;;;3.31;100.00;91753.63;5030455;28;20091;-64
2022/03/17 10:38:13;;;;;;;34.50;22.30;;;;;;;3.09;100.00;91755.47;5031564;28;20057;-64
2022/03/17 10:40:40;;;;;;;39.92;25.35;;;;;;;3.11;100.00;91756.81;5031567;28;20037;-64
2022/03/17 10:43:20;;;;;;;38.33;22.77;;;;;;;2.73;100.00;91751.56;5031403;28;20491;-64
2022/03/17 10:45:46;;;;;;;44.30;27.30;;;;;;;2.70;100.00;91758.88;5031289;28;20032;-64
2022/03/17 10:48:12;;;;;;;46.85;25.75;;;;;;;2.72;100.00;91755.22;5030912;28;20025;-63
2022/03/17 10:50:39;;;;;;;37.72;23.25;;;;;;;2.80;100.00;91758.22;5031152;28;20033;-64
2022/03/17 10:53:05;;;;;;;36.35;22.08;;;;;;;2.39;100.00;91756.84;5031259;28;20037;-63
2022/03/17 10:55:33;;;;;;;45.03;26.33;;;;;;;2.43;100.00;91762.41;5031117;28;20029;-63
2022/03/17 10:58:19;;;;;;;41.70;26.13;;;;;;;2.45;100.00;91750.59;5031233;28;20021;-64
2022/03/17 11:00:56;;;;;;;52.80;31.70;;;;;;;2.42;100.00;91748.47;5031192;28;20029;-64
2022/03/17 11:03:23;;;;;;;56.70;32.80;;;;;;;2.66;100.00;91755.13;5030879;28;20029;-64
2022/03/17 11:05:53;;;;;;;49.22;29.77;;;;;;;2.68;100.00;91754.88;5030585;28;20049;-64
2022/03/17 11:08:20;;;;;;;46.70;25.75;;;;;;;2.67;100.00;91746.22;5030758;28;20025;-64
2022/03/17 11:10:45;;;;;;;39.35;22.90;;;;;;;2.18;100.00;91754.88;5030920;28;20325;-64
2022/03/17 11:13:11;;;;;;;45.85;25.98;;;;;;;1.99;100.00;91762.19;5030938;28;20036;-64
2022/03/17 11:15:45;;;;;;;53.80;30.00;;;;;;;2.24;100.00;91761.84;5030793;28;20029;-64
2022/03/17 11:18:18;;;;;;;61.47;34.58;;;;;;;2.51;100.00;91759.34;5030515;28;20060;-64
2022/03/17 11:20:45;;;;;;;60.75;36.97;;;;;;;2.51;100.00;91756.72;5031134;28;20029;-66
2022/03/17 11:23:19;;;;;;;57.60;33.17;;;;;;;2.50;100.00;91770.91;5030734;28;20487;-65
2022/03/17 11:25:51;;;;;;;57.65;33.45;;;;;;;2.47;100.00;91764.28;5030647;28;20110;-65
2022/03/17 11:28:17;;;;;;;59.25;32.95;;;;;;;2.25;100.00;91755.53;5030589;28;20061;-64
2022/03/17 11:30:49;;;;;;;59.03;34.30;;;;;;;2.18;100.00;91766.19;5030725;28;20510;-65